sensor_id;sensor_type;location;lat;lon;timestamp;P1;durP1;ratioP1;P2;durP2;ratioP2
56141;SDS011;42018;48.588;10.836;2024-01-11T00:02:12;54.15;;;22.85;;
56141;SDS011;42018;48.588;10.836;2024-01-11T00:04:57;42.97;;;18.85;;
56141;SDS011;42018;48.588;10.836;2024-01-11T00:07:43;71.53;;;22.50;;
56141;SDS011;42018;48.588;10.836;2024-01-11T00:10:28;48.58;;;24.13;;
56141;SDS011;42018;48.588;10.836;2024-01-11T00:13:14;50.30;;;23.13;;
56141;SDS011;42018;48.588;10.836;2024-01-11T00:16:00;51.60;;;20.15;;
56141;SDS011;42018;48.588;10.836;2024-01-11T00:18:45;45.00;;;19.40;;
56141;SDS011;42018;48.588;10.836;2024-01-11T00:21:31;41.03;;;20.17;;
56141;SDS011;42018;48.588;10.836;2024-01-11T00:24:16;52.85;;;22.63;;
56141;SDS011;42018;48.588;10.836;2024-01-11T00:27:02;71.43;;;21.00;;
56141;SDS011;42018;48.588;10.836;2024-01-11T00:29:47;68.93;;;20.23;;
56141;SDS011;42018;48.588;10.836;2024-01-11T00:32:33;59.70;;;22.50;;
56141;SDS011;42018;48.588;10.836;2024-01-11T00:35:18;105.70;;;23.65;;
56141;SDS011;42018;48.588;10.836;2024-01-11T00:38:04;42.25;;;18.27;;
56141;SDS011;42018;48.588;10.836;2024-01-11T00:40:49;45.72;;;20.10;;
56141;SDS011;42018;48.588;10.836;2024-01-11T00:43:35;33.75;;;15.57;;
56141;SDS011;42018;48.588;10.836;2024-01-11T00:46:21;42.45;;;18.52;;
56141;SDS011;42018;48.588;10.836;2024-01-11T00:49:06;45.80;;;22.27;;
56141;SDS011;42018;48.588;10.836;2024-01-11T00:51:52;35.80;;;16.52;;
56141;SDS011;42018;48.588;10.836;2024-01-11T00:54:37;43.22;;;20.02;;
56141;SDS011;42018;48.588;10.836;2024-01-11T00:57:23;54.88;;;23.10;;
56141;SDS011;42018;48.588;10.836;2024-01-11T01:00:09;41.72;;;17.95;;
56141;SDS011;42018;48.588;10.836;2024-01-11T01:05:44;44.25;;;17.40;;
56141;SDS011;42018;48.588;10.836;2024-01-11T01:08:31;33.28;;;14.65;;
56141;SDS011;42018;48.588;10.836;2024-01-11T01:11:16;34.97;;;15.45;;
56141;SDS011;42018;48.588;10.836;2024-01-11T01:14:02;38.42;;;17.98;;
56141;SDS011;42018;48.588;10.836;2024-01-11T01:16:48;35.15;;;16.40;;
56141;SDS011;42018;48.588;10.836;2024-01-11T01:19:33;36.15;;;14.93;;
56141;SDS011;42018;48.588;10.836;2024-01-11T01:22:19;41.03;;;17.40;;
56141;SDS011;42018;48.588;10.836;2024-01-11T01:25:04;43.35;;;18.75;;
56141;SDS011;42018;48.588;10.836;2024-01-11T01:27:50;36.78;;;17.80;;
56141;SDS011;42018;48.588;10.836;2024-01-11T01:30:36;37.80;;;19.17;;
56141;SDS011;42018;48.588;10.836;2024-01-11T01:33:21;43.03;;;19.17;;
56141;SDS011;42018;48.588;10.836;2024-01-11T01:36:10;38.03;;;18.40;;
56141;SDS011;42018;48.588;10.836;2024-01-11T01:38:56;43.38;;;21.15;;
56141;SDS011;42018;48.588;10.836;2024-01-11T01:41:41;46.25;;;20.85;;
56141;SDS011;42018;48.588;10.836;2024-01-11T01:44:27;50.35;;;21.60;;
56141;SDS011;42018;48.588;10.836;2024-01-11T01:47:12;42.28;;;19.90;;
56141;SDS011;42018;48.588;10.836;2024-01-11T01:49:58;37.63;;;16.02;;
56141;SDS011;42018;48.588;10.836;2024-01-11T01:52:44;43.45;;;20.00;;
56141;SDS011;42018;48.588;10.836;2024-01-11T01:55:29;30.05;;;14.52;;
56141;SDS011;42018;48.588;10.836;2024-01-11T01:58:16;32.80;;;15.40;;
56141;SDS011;42018;48.588;10.836;2024-01-11T02:01:03;38.15;;;18.35;;
56141;SDS011;42018;48.588;10.836;2024-01-11T02:03:49;36.63;;;15.95;;
56141;SDS011;42018;48.588;10.836;2024-01-11T02:06:37;36.58;;;17.13;;
56141;SDS011;42018;48.588;10.836;2024-01-11T02:09:23;35.92;;;17.50;;
56141;SDS011;42018;48.588;10.836;2024-01-11T02:12:10;34.58;;;16.85;;
56141;SDS011;42018;48.588;10.836;2024-01-11T02:14:58;36.38;;;15.65;;
56141;SDS011;42018;48.588;10.836;2024-01-11T02:17:44;45.08;;;20.00;;
56141;SDS011;42018;48.588;10.836;2024-01-11T02:20:29;27.00;;;13.85;;
56141;SDS011;42018;48.588;10.836;2024-01-11T02:23:17;31.80;;;15.05;;
56141;SDS011;42018;48.588;10.836;2024-01-11T02:26:04;29.58;;;14.85;;
56141;SDS011;42018;48.588;10.836;2024-01-11T02:28:50;26.20;;;13.20;;
56141;SDS011;42018;48.588;10.836;2024-01-11T02:31:35;32.03;;;14.93;;
56141;SDS011;42018;48.588;10.836;2024-01-11T02:34:24;30.77;;;13.95;;
56141;SDS011;42018;48.588;10.836;2024-01-11T02:37:11;32.38;;;16.58;;
56141;SDS011;42018;48.588;10.836;2024-01-11T02:39:58;39.63;;;17.42;;
56141;SDS011;42018;48.588;10.836;2024-01-11T02:42:43;35.33;;;16.58;;
56141;SDS011;42018;48.588;10.836;2024-01-11T02:45:29;54.05;;;24.08;;
56141;SDS011;42018;48.588;10.836;2024-01-11T02:48:14;42.83;;;20.45;;
56141;SDS011;42018;48.588;10.836;2024-01-11T02:51:00;40.97;;;17.75;;
56141;SDS011;42018;48.588;10.836;2024-01-11T02:53:46;40.20;;;18.83;;
56141;SDS011;42018;48.588;10.836;2024-01-11T02:56:31;31.83;;;15.85;;
56141;SDS011;42018;48.588;10.836;2024-01-11T02:59:17;41.92;;;19.30;;
56141;SDS011;42018;48.588;10.836;2024-01-11T03:02:03;34.97;;;17.00;;
56141;SDS011;42018;48.588;10.836;2024-01-11T03:04:49;45.05;;;22.05;;
56141;SDS011;42018;48.588;10.836;2024-01-11T03:07:35;37.63;;;17.85;;
56141;SDS011;42018;48.588;10.836;2024-01-11T03:10:20;35.88;;;15.98;;
56141;SDS011;42018;48.588;10.836;2024-01-11T03:13:08;33.63;;;15.63;;
56141;SDS011;42018;48.588;10.836;2024-01-11T03:15:54;42.35;;;19.80;;
56141;SDS011;42018;48.588;10.836;2024-01-11T03:18:40;43.20;;;19.95;;
56141;SDS011;42018;48.588;10.836;2024-01-11T03:21:25;47.08;;;21.33;;
56141;SDS011;42018;48.588;10.836;2024-01-11T03:24:11;36.35;;;16.38;;
56141;SDS011;42018;48.588;10.836;2024-01-11T03:26:56;35.83;;;16.17;;
56141;SDS011;42018;48.588;10.836;2024-01-11T03:29:42;50.05;;;23.20;;
56141;SDS011;42018;48.588;10.836;2024-01-11T03:32:27;31.88;;;15.32;;
56141;SDS011;42018;48.588;10.836;2024-01-11T03:35:13;37.95;;;16.85;;
56141;SDS011;42018;48.588;10.836;2024-01-11T03:37:58;48.80;;;23.10;;
56141;SDS011;42018;48.588;10.836;2024-01-11T03:40:44;43.10;;;18.55;;
56141;SDS011;42018;48.588;10.836;2024-01-11T03:43:29;38.63;;;18.35;;
56141;SDS011;42018;48.588;10.836;2024-01-11T03:46:15;51.88;;;21.38;;
56141;SDS011;42018;48.588;10.836;2024-01-11T03:49:01;42.85;;;19.65;;
56141;SDS011;42018;48.588;10.836;2024-01-11T03:51:46;40.22;;;19.08;;
56141;SDS011;42018;48.588;10.836;2024-01-11T03:54:32;34.75;;;18.48;;
56141;SDS011;42018;48.588;10.836;2024-01-11T03:57:17;46.33;;;21.52;;
56141;SDS011;42018;48.588;10.836;2024-01-11T04:00:03;52.45;;;21.95;;
56141;SDS011;42018;48.588;10.836;2024-01-11T04:02:53;52.03;;;21.20;;
56141;SDS011;42018;48.588;10.836;2024-01-11T04:05:39;51.30;;;21.75;;
56141;SDS011;42018;48.588;10.836;2024-01-11T04:08:24;43.70;;;19.65;;
56141;SDS011;42018;48.588;10.836;2024-01-11T04:11:10;48.13;;;20.52;;
56141;SDS011;42018;48.588;10.836;2024-01-11T04:13:55;38.60;;;18.65;;
56141;SDS011;42018;48.588;10.836;2024-01-11T04:16:41;41.20;;;18.58;;
56141;SDS011;42018;48.588;10.836;2024-01-11T04:19:27;38.55;;;17.55;;
56141;SDS011;42018;48.588;10.836;2024-01-11T04:22:13;33.95;;;14.93;;
56141;SDS011;42018;48.588;10.836;2024-01-11T04:24:58;41.88;;;18.63;;
56141;SDS011;42018;48.588;10.836;2024-01-11T04:27:44;54.85;;;25.75;;
56141;SDS011;42018;48.588;10.836;2024-01-11T04:30:30;47.03;;;22.38;;
56141;SDS011;42018;48.588;10.836;2024-01-11T04:33:16;47.53;;;22.00;;
56141;SDS011;42018;48.588;10.836;2024-01-11T04:36:02;44.92;;;19.52;;
56141;SDS011;42018;48.588;10.836;2024-01-11T04:38:48;44.22;;;20.25;;
56141;SDS011;42018;48.588;10.836;2024-01-11T04:41:34;44.97;;;19.75;;
56141;SDS011;42018;48.588;10.836;2024-01-11T04:44:22;35.08;;;16.17;;
56141;SDS011;42018;48.588;10.836;2024-01-11T04:47:07;37.83;;;16.05;;
56141;SDS011;42018;48.588;10.836;2024-01-11T04:49:53;53.47;;;22.80;;
56141;SDS011;42018;48.588;10.836;2024-01-11T04:52:39;47.10;;;20.08;;
56141;SDS011;42018;48.588;10.836;2024-01-11T04:55:24;39.65;;;18.75;;
56141;SDS011;42018;48.588;10.836;2024-01-11T04:58:10;40.33;;;17.75;;
56141;SDS011;42018;48.588;10.836;2024-01-11T05:00:55;43.58;;;18.42;;
56141;SDS011;42018;48.588;10.836;2024-01-11T05:03:41;39.63;;;18.30;;
56141;SDS011;42018;48.588;10.836;2024-01-11T05:06:31;40.00;;;18.67;;
56141;SDS011;42018;48.588;10.836;2024-01-11T05:09:16;40.13;;;18.45;;
56141;SDS011;42018;48.588;10.836;2024-01-11T05:12:02;38.60;;;16.35;;
56141;SDS011;42018;48.588;10.836;2024-01-11T05:14:48;44.55;;;18.83;;
56141;SDS011;42018;48.588;10.836;2024-01-11T05:17:33;39.60;;;18.05;;
56141;SDS011;42018;48.588;10.836;2024-01-11T05:20:19;50.60;;;22.65;;
56141;SDS011;42018;48.588;10.836;2024-01-11T05:23:05;39.17;;;18.83;;
56141;SDS011;42018;48.588;10.836;2024-01-11T05:25:50;43.75;;;18.52;;
56141;SDS011;42018;48.588;10.836;2024-01-11T05:28:36;50.75;;;23.67;;
56141;SDS011;42018;48.588;10.836;2024-01-11T05:31:24;45.28;;;20.45;;
56141;SDS011;42018;48.588;10.836;2024-01-11T05:34:10;44.17;;;20.10;;
56141;SDS011;42018;48.588;10.836;2024-01-11T05:37:16;37.90;;;17.60;;
56141;SDS011;42018;48.588;10.836;2024-01-11T05:40:01;33.33;;;15.02;;
56141;SDS011;42018;48.588;10.836;2024-01-11T05:42:48;32.13;;;14.85;;
56141;SDS011;42018;48.588;10.836;2024-01-11T05:45:33;44.33;;;22.00;;
56141;SDS011;42018;48.588;10.836;2024-01-11T05:48:19;41.17;;;20.80;;
56141;SDS011;42018;48.588;10.836;2024-01-11T05:51:05;49.38;;;19.65;;
56141;SDS011;42018;48.588;10.836;2024-01-11T05:53:50;49.47;;;21.02;;
56141;SDS011;42018;48.588;10.836;2024-01-11T05:56:36;47.83;;;23.65;;
56141;SDS011;42018;48.588;10.836;2024-01-11T05:59:22;39.92;;;19.00;;
56141;SDS011;42018;48.588;10.836;2024-01-11T06:02:07;42.35;;;21.05;;
56141;SDS011;42018;48.588;10.836;2024-01-11T06:04:53;46.28;;;20.92;;
56141;SDS011;42018;48.588;10.836;2024-01-11T06:07:38;29.15;;;14.63;;
56141;SDS011;42018;48.588;10.836;2024-01-11T06:10:24;53.58;;;24.20;;
56141;SDS011;42018;48.588;10.836;2024-01-11T06:13:09;60.72;;;24.23;;
56141;SDS011;42018;48.588;10.836;2024-01-11T06:15:55;46.90;;;22.27;;
56141;SDS011;42018;48.588;10.836;2024-01-11T06:18:41;35.67;;;18.42;;
56141;SDS011;42018;48.588;10.836;2024-01-11T06:21:26;49.00;;;22.23;;
56141;SDS011;42018;48.588;10.836;2024-01-11T06:24:12;29.65;;;15.32;;
56141;SDS011;42018;48.588;10.836;2024-01-11T06:26:57;39.88;;;19.45;;
56141;SDS011;42018;48.588;10.836;2024-01-11T06:29:43;33.65;;;16.35;;
56141;SDS011;42018;48.588;10.836;2024-01-11T06:32:29;46.53;;;20.92;;
56141;SDS011;42018;48.588;10.836;2024-01-11T06:35:14;77.43;;;23.83;;
56141;SDS011;42018;48.588;10.836;2024-01-11T06:38:00;37.05;;;19.75;;
56141;SDS011;42018;48.588;10.836;2024-01-11T06:40:46;33.30;;;17.13;;
56141;SDS011;42018;48.588;10.836;2024-01-11T06:43:32;29.30;;;15.77;;
56141;SDS011;42018;48.588;10.836;2024-01-11T06:46:21;28.75;;;15.65;;
56141;SDS011;42018;48.588;10.836;2024-01-11T06:49:07;37.15;;;18.05;;
56141;SDS011;42018;48.588;10.836;2024-01-11T06:51:53;30.92;;;15.52;;
56141;SDS011;42018;48.588;10.836;2024-01-11T06:54:39;35.42;;;18.45;;
56141;SDS011;42018;48.588;10.836;2024-01-11T06:57:25;32.85;;;16.80;;
56141;SDS011;42018;48.588;10.836;2024-01-11T07:00:11;37.25;;;18.77;;
56141;SDS011;42018;48.588;10.836;2024-01-11T07:02:58;35.33;;;17.65;;
56141;SDS011;42018;48.588;10.836;2024-01-11T07:05:44;43.42;;;20.77;;
56141;SDS011;42018;48.588;10.836;2024-01-11T07:08:30;34.72;;;18.00;;
56141;SDS011;42018;48.588;10.836;2024-01-11T07:11:16;34.75;;;15.65;;
56141;SDS011;42018;48.588;10.836;2024-01-11T07:14:01;33.88;;;16.48;;
56141;SDS011;42018;48.588;10.836;2024-01-11T07:16:49;41.30;;;18.65;;
56141;SDS011;42018;48.588;10.836;2024-01-11T07:19:35;30.88;;;15.45;;
56141;SDS011;42018;48.588;10.836;2024-01-11T07:22:22;26.27;;;13.85;;
56141;SDS011;42018;48.588;10.836;2024-01-11T07:25:07;31.75;;;15.23;;
56141;SDS011;42018;48.588;10.836;2024-01-11T07:27:53;28.33;;;13.02;;
56141;SDS011;42018;48.588;10.836;2024-01-11T07:30:38;35.65;;;18.30;;
56141;SDS011;42018;48.588;10.836;2024-01-11T07:33:25;36.42;;;18.10;;
56141;SDS011;42018;48.588;10.836;2024-01-11T07:36:10;24.63;;;13.85;;
56141;SDS011;42018;48.588;10.836;2024-01-11T07:38:57;37.45;;;19.10;;
56141;SDS011;42018;48.588;10.836;2024-01-11T07:41:42;36.47;;;19.00;;
56141;SDS011;42018;48.588;10.836;2024-01-11T07:44:28;30.85;;;15.98;;
56141;SDS011;42018;48.588;10.836;2024-01-11T07:47:14;32.65;;;15.88;;
56141;SDS011;42018;48.588;10.836;2024-01-11T07:49:59;39.05;;;19.48;;
56141;SDS011;42018;48.588;10.836;2024-01-11T07:52:45;25.23;;;13.93;;
56141;SDS011;42018;48.588;10.836;2024-01-11T07:55:31;35.90;;;16.23;;
56141;SDS011;42018;48.588;10.836;2024-01-11T07:58:17;33.35;;;16.90;;
56141;SDS011;42018;48.588;10.836;2024-01-11T08:01:03;34.08;;;17.20;;
56141;SDS011;42018;48.588;10.836;2024-01-11T08:03:50;27.85;;;15.93;;
56141;SDS011;42018;48.588;10.836;2024-01-11T08:06:37;58.20;;;20.60;;
56141;SDS011;42018;48.588;10.836;2024-01-11T08:09:23;26.27;;;14.38;;
56141;SDS011;42018;48.588;10.836;2024-01-11T08:12:08;31.63;;;14.95;;
56141;SDS011;42018;48.588;10.836;2024-01-11T08:14:54;28.30;;;14.50;;
56141;SDS011;42018;48.588;10.836;2024-01-11T08:17:43;28.75;;;14.25;;
56141;SDS011;42018;48.588;10.836;2024-01-11T08:20:30;38.78;;;18.52;;
56141;SDS011;42018;48.588;10.836;2024-01-11T08:23:15;36.17;;;18.17;;
56141;SDS011;42018;48.588;10.836;2024-01-11T08:26:01;37.60;;;16.90;;
56141;SDS011;42018;48.588;10.836;2024-01-11T08:28:47;35.35;;;18.15;;
56141;SDS011;42018;48.588;10.836;2024-01-11T08:31:33;54.22;;;21.65;;
56141;SDS011;42018;48.588;10.836;2024-01-11T08:34:18;38.50;;;17.48;;
56141;SDS011;42018;48.588;10.836;2024-01-11T08:37:04;30.35;;;14.73;;
56141;SDS011;42018;48.588;10.836;2024-01-11T08:39:50;34.40;;;17.77;;
56141;SDS011;42018;48.588;10.836;2024-01-11T08:42:35;31.55;;;14.70;;
56141;SDS011;42018;48.588;10.836;2024-01-11T08:45:21;35.15;;;15.98;;
56141;SDS011;42018;48.588;10.836;2024-01-11T08:48:07;33.80;;;15.35;;
56141;SDS011;42018;48.588;10.836;2024-01-11T08:50:53;34.42;;;17.50;;
56141;SDS011;42018;48.588;10.836;2024-01-11T08:53:38;32.40;;;15.75;;
56141;SDS011;42018;48.588;10.836;2024-01-11T08:56:25;31.88;;;17.08;;
56141;SDS011;42018;48.588;10.836;2024-01-11T08:59:11;36.88;;;16.73;;
56141;SDS011;42018;48.588;10.836;2024-01-11T09:01:56;38.33;;;18.58;;
56141;SDS011;42018;48.588;10.836;2024-01-11T09:04:42;39.78;;;20.45;;
56141;SDS011;42018;48.588;10.836;2024-01-11T09:07:27;43.42;;;20.20;;
56141;SDS011;42018;48.588;10.836;2024-01-11T09:10:13;43.28;;;23.02;;
56141;SDS011;42018;48.588;10.836;2024-01-11T09:12:58;51.08;;;23.35;;
56141;SDS011;42018;48.588;10.836;2024-01-11T09:15:44;45.58;;;23.33;;
56141;SDS011;42018;48.588;10.836;2024-01-11T09:18:30;53.08;;;25.77;;
56141;SDS011;42018;48.588;10.836;2024-01-11T09:21:16;52.83;;;25.42;;
56141;SDS011;42018;48.588;10.836;2024-01-11T09:24:01;47.25;;;24.02;;
56141;SDS011;42018;48.588;10.836;2024-01-11T09:26:47;47.55;;;24.63;;
56141;SDS011;42018;48.588;10.836;2024-01-11T09:29:35;53.40;;;25.27;;
56141;SDS011;42018;48.588;10.836;2024-01-11T09:32:20;52.03;;;25.58;;
56141;SDS011;42018;48.588;10.836;2024-01-11T09:35:06;48.80;;;23.83;;
56141;SDS011;42018;48.588;10.836;2024-01-11T09:37:52;52.28;;;24.27;;
56141;SDS011;42018;48.588;10.836;2024-01-11T09:40:38;56.70;;;24.17;;
56141;SDS011;42018;48.588;10.836;2024-01-11T09:43:23;56.15;;;23.83;;
56141;SDS011;42018;48.588;10.836;2024-01-11T09:46:09;58.63;;;25.75;;
56141;SDS011;42018;48.588;10.836;2024-01-11T09:48:56;54.60;;;24.27;;
56141;SDS011;42018;48.588;10.836;2024-01-11T09:51:43;51.13;;;25.98;;
56141;SDS011;42018;48.588;10.836;2024-01-11T09:54:31;50.25;;;24.10;;
56141;SDS011;42018;48.588;10.836;2024-01-11T09:57:18;51.78;;;26.48;;
56141;SDS011;42018;48.588;10.836;2024-01-11T10:00:11;50.72;;;24.85;;
56141;SDS011;42018;48.588;10.836;2024-01-11T10:03:00;45.33;;;23.33;;
56141;SDS011;42018;48.588;10.836;2024-01-11T10:05:46;52.58;;;24.10;;
56141;SDS011;42018;48.588;10.836;2024-01-11T10:08:34;48.97;;;25.17;;
56141;SDS011;42018;48.588;10.836;2024-01-11T10:11:20;58.80;;;26.02;;
56141;SDS011;42018;48.588;10.836;2024-01-11T10:14:06;49.83;;;24.02;;
56141;SDS011;42018;48.588;10.836;2024-01-11T10:16:53;60.00;;;28.20;;
56141;SDS011;42018;48.588;10.836;2024-01-11T10:19:39;59.42;;;27.23;;
56141;SDS011;42018;48.588;10.836;2024-01-11T10:22:25;47.17;;;24.25;;
56141;SDS011;42018;48.588;10.836;2024-01-11T10:25:12;49.47;;;25.95;;
56141;SDS011;42018;48.588;10.836;2024-01-11T10:27:58;51.35;;;26.00;;
56141;SDS011;42018;48.588;10.836;2024-01-11T10:30:47;53.08;;;26.67;;
56141;SDS011;42018;48.588;10.836;2024-01-11T10:33:35;53.80;;;25.88;;
56141;SDS011;42018;48.588;10.836;2024-01-11T10:36:21;50.00;;;26.15;;
56141;SDS011;42018;48.588;10.836;2024-01-11T10:39:07;47.03;;;27.45;;
56141;SDS011;42018;48.588;10.836;2024-01-11T10:42:05;53.38;;;27.63;;
56141;SDS011;42018;48.588;10.836;2024-01-11T10:44:52;50.38;;;26.33;;
56141;SDS011;42018;48.588;10.836;2024-01-11T10:47:57;55.30;;;27.40;;
56141;SDS011;42018;48.588;10.836;2024-01-11T10:50:48;48.30;;;23.63;;
56141;SDS011;42018;48.588;10.836;2024-01-11T10:53:46;50.17;;;25.00;;
56141;SDS011;42018;48.588;10.836;2024-01-11T10:56:32;54.83;;;28.00;;
56141;SDS011;42018;48.588;10.836;2024-01-11T10:59:19;47.95;;;25.85;;
56141;SDS011;42018;48.588;10.836;2024-01-11T11:02:10;50.08;;;25.17;;
56141;SDS011;42018;48.588;10.836;2024-01-11T11:04:57;56.85;;;30.92;;
56141;SDS011;42018;48.588;10.836;2024-01-11T11:07:44;54.17;;;28.90;;
56141;SDS011;42018;48.588;10.836;2024-01-11T11:10:32;59.70;;;29.52;;
56141;SDS011;42018;48.588;10.836;2024-01-11T11:13:23;49.92;;;25.63;;
56141;SDS011;42018;48.588;10.836;2024-01-11T11:16:09;47.67;;;25.73;;
56141;SDS011;42018;48.588;10.836;2024-01-11T11:18:56;49.58;;;28.45;;
56141;SDS011;42018;48.588;10.836;2024-01-11T11:21:42;49.58;;;27.17;;
56141;SDS011;42018;48.588;10.836;2024-01-11T11:24:29;51.22;;;26.35;;
56141;SDS011;42018;48.588;10.836;2024-01-11T11:27:16;48.95;;;27.05;;
56141;SDS011;42018;48.588;10.836;2024-01-11T11:30:04;49.17;;;25.85;;
56141;SDS011;42018;48.588;10.836;2024-01-11T11:32:51;62.50;;;32.10;;
56141;SDS011;42018;48.588;10.836;2024-01-11T11:35:37;50.60;;;27.45;;
56141;SDS011;42018;48.588;10.836;2024-01-11T11:38:23;50.75;;;27.35;;
56141;SDS011;42018;48.588;10.836;2024-01-11T11:41:11;51.55;;;28.48;;
56141;SDS011;42018;48.588;10.836;2024-01-11T11:44:03;46.97;;;26.88;;
56141;SDS011;42018;48.588;10.836;2024-01-11T11:46:50;50.92;;;27.98;;
56141;SDS011;42018;48.588;10.836;2024-01-11T11:52:54;50.75;;;29.05;;
56141;SDS011;42018;48.588;10.836;2024-01-11T11:55:42;47.90;;;27.65;;
56141;SDS011;42018;48.588;10.836;2024-01-11T11:58:27;53.70;;;28.67;;
56141;SDS011;42018;48.588;10.836;2024-01-11T12:01:14;48.33;;;26.58;;
56141;SDS011;42018;48.588;10.836;2024-01-11T12:04:02;50.08;;;28.05;;
56141;SDS011;42018;48.588;10.836;2024-01-11T12:06:47;48.40;;;25.85;;
56141;SDS011;42018;48.588;10.836;2024-01-11T12:09:33;50.50;;;28.85;;
56141;SDS011;42018;48.588;10.836;2024-01-11T12:12:19;54.25;;;30.38;;
56141;SDS011;42018;48.588;10.836;2024-01-11T12:15:06;47.25;;;26.67;;
56141;SDS011;42018;48.588;10.836;2024-01-11T12:17:59;48.90;;;29.00;;
56141;SDS011;42018;48.588;10.836;2024-01-11T12:20:45;49.13;;;29.10;;
56141;SDS011;42018;48.588;10.836;2024-01-11T12:23:31;53.67;;;30.58;;
56141;SDS011;42018;48.588;10.836;2024-01-11T12:26:19;49.42;;;27.35;;
56141;SDS011;42018;48.588;10.836;2024-01-11T12:29:07;48.97;;;25.88;;
56141;SDS011;42018;48.588;10.836;2024-01-11T12:31:54;50.60;;;29.58;;
56141;SDS011;42018;48.588;10.836;2024-01-11T12:34:43;45.50;;;24.85;;
56141;SDS011;42018;48.588;10.836;2024-01-11T12:37:30;47.83;;;26.52;;
56141;SDS011;42018;48.588;10.836;2024-01-11T12:40:16;48.88;;;27.00;;
56141;SDS011;42018;48.588;10.836;2024-01-11T12:43:02;47.30;;;27.13;;
56141;SDS011;42018;48.588;10.836;2024-01-11T12:45:48;53.67;;;31.00;;
56141;SDS011;42018;48.588;10.836;2024-01-11T12:48:34;52.42;;;29.95;;
56141;SDS011;42018;48.588;10.836;2024-01-11T12:51:19;52.13;;;30.70;;
56141;SDS011;42018;48.588;10.836;2024-01-11T12:54:05;53.78;;;28.85;;
56141;SDS011;42018;48.588;10.836;2024-01-11T12:56:57;52.28;;;29.38;;
56141;SDS011;42018;48.588;10.836;2024-01-11T12:59:43;46.13;;;26.88;;
56141;SDS011;42018;48.588;10.836;2024-01-11T13:02:28;47.47;;;27.17;;
56141;SDS011;42018;48.588;10.836;2024-01-11T13:05:16;43.05;;;24.77;;
56141;SDS011;42018;48.588;10.836;2024-01-11T13:08:02;40.45;;;24.05;;
56141;SDS011;42018;48.588;10.836;2024-01-11T13:10:51;44.23;;;25.80;;
56141;SDS011;42018;48.588;10.836;2024-01-11T13:13:36;44.67;;;25.58;;
56141;SDS011;42018;48.588;10.836;2024-01-11T13:16:22;47.13;;;26.15;;
56141;SDS011;42018;48.588;10.836;2024-01-11T13:19:09;48.42;;;27.45;;
56141;SDS011;42018;48.588;10.836;2024-01-11T13:21:56;50.30;;;28.10;;
56141;SDS011;42018;48.588;10.836;2024-01-11T13:24:42;44.17;;;26.35;;
56141;SDS011;42018;48.588;10.836;2024-01-11T13:27:27;51.15;;;29.15;;
56141;SDS011;42018;48.588;10.836;2024-01-11T13:30:13;53.85;;;30.33;;
56141;SDS011;42018;48.588;10.836;2024-01-11T13:32:59;52.13;;;29.25;;
56141;SDS011;42018;48.588;10.836;2024-01-11T13:35:45;53.63;;;30.45;;
56141;SDS011;42018;48.588;10.836;2024-01-11T13:38:30;50.92;;;29.30;;
56141;SDS011;42018;48.588;10.836;2024-01-11T13:41:16;58.80;;;30.17;;
56141;SDS011;42018;48.588;10.836;2024-01-11T13:44:02;45.60;;;27.75;;
56141;SDS011;42018;48.588;10.836;2024-01-11T13:46:51;52.55;;;31.75;;
56141;SDS011;42018;48.588;10.836;2024-01-11T13:49:36;47.65;;;28.20;;
56141;SDS011;42018;48.588;10.836;2024-01-11T13:52:22;52.22;;;29.42;;
56141;SDS011;42018;48.588;10.836;2024-01-11T13:55:07;55.17;;;29.70;;
56141;SDS011;42018;48.588;10.836;2024-01-11T13:57:55;52.33;;;29.98;;
56141;SDS011;42018;48.588;10.836;2024-01-11T14:00:41;53.10;;;29.77;;
56141;SDS011;42018;48.588;10.836;2024-01-11T14:03:27;52.47;;;29.95;;
56141;SDS011;42018;48.588;10.836;2024-01-11T14:06:12;51.17;;;29.02;;
56141;SDS011;42018;48.588;10.836;2024-01-11T14:08:58;44.97;;;27.00;;
56141;SDS011;42018;48.588;10.836;2024-01-11T14:11:44;51.35;;;31.05;;
56141;SDS011;42018;48.588;10.836;2024-01-11T14:14:30;49.55;;;26.58;;
56141;SDS011;42018;48.588;10.836;2024-01-11T14:17:15;44.67;;;24.38;;
56141;SDS011;42018;48.588;10.836;2024-01-11T14:20:01;44.10;;;24.58;;
56141;SDS011;42018;48.588;10.836;2024-01-11T14:22:47;45.70;;;26.50;;
56141;SDS011;42018;48.588;10.836;2024-01-11T14:25:35;49.92;;;29.50;;
56141;SDS011;42018;48.588;10.836;2024-01-11T14:28:21;52.25;;;29.05;;
56141;SDS011;42018;48.588;10.836;2024-01-11T14:31:07;50.53;;;29.17;;
56141;SDS011;42018;48.588;10.836;2024-01-11T14:33:53;50.30;;;30.38;;
56141;SDS011;42018;48.588;10.836;2024-01-11T14:36:39;52.58;;;29.65;;
56141;SDS011;42018;48.588;10.836;2024-01-11T14:39:24;42.45;;;24.67;;
56141;SDS011;42018;48.588;10.836;2024-01-11T14:42:10;48.67;;;28.63;;
56141;SDS011;42018;48.588;10.836;2024-01-11T14:44:56;48.50;;;26.67;;
56141;SDS011;42018;48.588;10.836;2024-01-11T14:47:42;47.35;;;29.10;;
56141;SDS011;42018;48.588;10.836;2024-01-11T14:50:27;52.50;;;30.48;;
56141;SDS011;42018;48.588;10.836;2024-01-11T14:53:13;54.28;;;31.45;;
56141;SDS011;42018;48.588;10.836;2024-01-11T14:56:02;49.28;;;30.92;;
56141;SDS011;42018;48.588;10.836;2024-01-11T14:58:48;64.30;;;36.60;;
56141;SDS011;42018;48.588;10.836;2024-01-11T15:01:33;64.60;;;39.88;;
56141;SDS011;42018;48.588;10.836;2024-01-11T15:04:19;64.25;;;36.45;;
56141;SDS011;42018;48.588;10.836;2024-01-11T15:07:05;52.80;;;30.80;;
56141;SDS011;42018;48.588;10.836;2024-01-11T15:09:51;65.00;;;34.17;;
56141;SDS011;42018;48.588;10.836;2024-01-11T15:12:37;59.13;;;33.00;;
56141;SDS011;42018;48.588;10.836;2024-01-11T15:15:22;54.78;;;29.92;;
56141;SDS011;42018;48.588;10.836;2024-01-11T15:18:08;54.28;;;30.63;;
56141;SDS011;42018;48.588;10.836;2024-01-11T15:20:53;49.67;;;28.88;;
56141;SDS011;42018;48.588;10.836;2024-01-11T15:23:39;78.57;;;37.22;;
56141;SDS011;42018;48.588;10.836;2024-01-11T15:26:25;70.07;;;37.75;;
56141;SDS011;42018;48.588;10.836;2024-01-11T15:29:12;53.83;;;28.65;;
56141;SDS011;42018;48.588;10.836;2024-01-11T15:31:57;52.25;;;31.25;;
56141;SDS011;42018;48.588;10.836;2024-01-11T15:34:43;48.55;;;27.67;;
56141;SDS011;42018;48.588;10.836;2024-01-11T15:37:28;47.85;;;28.23;;
56141;SDS011;42018;48.588;10.836;2024-01-11T15:40:14;57.25;;;34.13;;
56141;SDS011;42018;48.588;10.836;2024-01-11T15:42:59;51.22;;;31.52;;
56141;SDS011;42018;48.588;10.836;2024-01-11T15:45:46;49.50;;;27.05;;
56141;SDS011;42018;48.588;10.836;2024-01-11T15:48:32;37.97;;;21.88;;
56141;SDS011;42018;48.588;10.836;2024-01-11T15:51:17;46.38;;;27.38;;
56141;SDS011;42018;48.588;10.836;2024-01-11T15:54:03;54.83;;;30.00;;
56141;SDS011;42018;48.588;10.836;2024-01-11T15:56:48;47.83;;;28.23;;
56141;SDS011;42018;48.588;10.836;2024-01-11T15:59:34;46.13;;;25.65;;
56141;SDS011;42018;48.588;10.836;2024-01-11T16:02:19;49.80;;;25.73;;
56141;SDS011;42018;48.588;10.836;2024-01-11T16:05:05;42.08;;;24.95;;